createdAt,value
2019-03-18T00:01:01.797Z,9.30
2019-03-18T00:06:18.506Z,9.30
2019-03-18T00:11:34.043Z,9.20
2019-03-18T00:16:51.640Z,9.20
2019-03-18T00:22:07.423Z,9.20
2019-03-18T00:27:23.509Z,9.10
2019-03-18T00:32:39.433Z,9.10
2019-03-18T00:37:55.246Z,9.00
2019-03-18T00:43:10.739Z,9.00
2019-03-18T00:48:26.853Z,9.00
2019-03-18T00:53:42.548Z,8.90
2019-03-18T00:58:58.060Z,8.90
2019-03-18T01:04:13.553Z,8.90
2019-03-18T01:09:29.645Z,8.80
2019-03-18T01:14:45.416Z,8.80
2019-03-18T01:20:01.492Z,8.80
2019-03-18T01:25:16.840Z,8.70
2019-03-18T01:30:32.859Z,8.70
2019-03-18T01:35:48.752Z,8.70
2019-03-18T01:41:04.617Z,8.60
2019-03-18T01:46:20.359Z,8.60
2019-03-18T01:51:36.035Z,8.60
2019-03-18T01:56:51.933Z,8.50
2019-03-18T02:02:07.840Z,8.50
2019-03-18T02:07:23.816Z,8.50
2019-03-18T02:12:39.773Z,8.40
2019-03-18T02:17:55.393Z,8.40
2019-03-18T02:23:10.759Z,8.40
2019-03-18T02:28:26.995Z,8.30
2019-03-18T02:33:42.814Z,8.30
2019-03-18T02:38:58.542Z,8.30
2019-03-18T02:44:14.355Z,8.20
2019-03-18T02:49:30.192Z,8.20
2019-03-18T02:54:46.496Z,8.20
2019-03-18T03:00:02.267Z,8.00
2019-03-18T03:05:18.993Z,7.70
2019-03-18T03:10:34.829Z,7.40
2019-03-18T03:15:50.812Z,7.00
2019-03-18T03:21:06.678Z,6.90
2019-03-18T03:26:22.087Z,6.80
2019-03-18T03:31:37.993Z,6.80
2019-03-18T03:36:53.631Z,6.70
2019-03-18T03:42:09.353Z,6.60
2019-03-18T03:47:24.789Z,6.50
2019-03-18T03:52:40.494Z,6.30
2019-03-18T03:57:56.356Z,6.20
2019-03-18T04:03:12.889Z,6.10
2019-03-18T04:08:29.006Z,5.90
2019-03-18T04:13:44.325Z,5.90
2019-03-18T04:19:00.503Z,5.80
2019-03-18T04:24:16.381Z,5.80
2019-03-18T04:29:32.388Z,5.70
2019-03-18T04:34:48.234Z,5.70
2019-03-18T04:40:03.947Z,5.60
2019-03-18T04:45:20.671Z,5.60
2019-03-18T04:50:36.568Z,5.60
2019-03-18T04:55:52.547Z,5.50
2019-03-18T05:01:08.017Z,5.50
2019-03-18T05:06:23.324Z,5.40
2019-03-18T05:11:39.418Z,5.30
2019-03-18T05:16:58.548Z,5.30
2019-03-18T05:22:14.293Z,5.20
2019-03-18T05:27:30.035Z,5.00
2019-03-18T05:32:45.890Z,4.90
2019-03-18T05:38:02.173Z,4.90
2019-03-18T05:43:17.989Z,4.80
2019-03-18T05:48:35.485Z,4.70
2019-03-18T05:53:51.442Z,4.60
2019-03-18T05:59:10.374Z,4.40
2019-03-18T06:04:25.951Z,4.30
2019-03-18T06:09:41.961Z,4.30
2019-03-18T06:14:58.136Z,4.30
2019-03-18T06:20:13.910Z,4.20
2019-03-18T06:25:29.818Z,4.10
2019-03-18T06:30:45.781Z,4.10
2019-03-18T06:36:01.290Z,4.20
2019-03-18T06:41:17.193Z,4.20
2019-03-18T06:46:32.857Z,4.30
2019-03-18T06:51:48.143Z,4.30
2019-03-18T06:57:03.746Z,4.30
2019-03-18T07:02:19.343Z,4.20
2019-03-18T07:07:35.218Z,4.20
2019-03-18T07:12:50.970Z,4.30
2019-03-18T07:18:17.649Z,4.30
2019-03-18T07:23:23.818Z,4.30
2019-03-18T07:28:39.151Z,4.20
2019-03-18T07:33:54.920Z,4.30
2019-03-18T07:39:10.405Z,4.30
2019-03-18T07:44:25.930Z,4.20
2019-03-18T07:49:41.948Z,4.20
2019-03-18T07:54:59.341Z,4.20
2019-03-18T08:00:15.396Z,4.30
2019-03-18T08:05:32.439Z,4.30
2019-03-18T08:10:48.944Z,4.30
2019-03-18T08:16:05.194Z,4.40
2019-03-18T08:21:20.847Z,4.40
2019-03-18T08:26:36.540Z,4.50
2019-03-18T08:31:52.051Z,4.50
2019-03-18T08:37:07.389Z,4.60
2019-03-18T08:42:23.726Z,4.60
2019-03-18T08:47:39.385Z,4.70
2019-03-18T08:52:54.980Z,4.80
2019-03-18T08:58:10.773Z,4.90
2019-03-18T09:03:26.611Z,5.10
2019-03-18T09:08:42.341Z,5.20
2019-03-18T09:13:57.963Z,5.30
2019-03-18T09:19:13.591Z,5.40
2019-03-18T09:24:29.254Z,5.50
2019-03-18T09:29:45.067Z,5.60
2019-03-18T09:35:00.791Z,5.20
2019-03-18T09:40:16.686Z,4.90
2019-03-18T09:45:32.267Z,4.80
2019-03-18T09:50:47.870Z,4.80
2019-03-18T09:56:03.749Z,5.00
2019-03-18T10:01:19.468Z,5.40
2019-03-18T10:06:35.418Z,5.70
2019-03-18T10:11:50.976Z,6.00
2019-03-18T10:17:09.849Z,6.30
2019-03-18T10:22:24.771Z,6.50
2019-03-18T10:27:40.482Z,6.80
2019-03-18T10:32:56.207Z,7.10
2019-03-18T10:38:12.258Z,7.30
2019-03-18T10:43:27.937Z,7.60
2019-03-18T10:48:43.605Z,7.80
2019-03-18T10:53:59.195Z,7.90
2019-03-18T10:59:15.112Z,8.20
2019-03-18T11:04:31.237Z,8.40
2019-03-18T11:09:47.318Z,8.60
2019-03-18T11:15:02.977Z,8.90
2019-03-18T11:20:20.212Z,9.20
2019-03-18T11:25:36.165Z,9.20
2019-03-18T11:30:52.281Z,9.20
2019-03-18T11:36:09.069Z,9.40
2019-03-18T11:41:25.167Z,9.50
2019-03-18T11:46:40.784Z,9.50
2019-03-18T11:51:56.357Z,9.60
2019-03-18T11:57:12.105Z,9.40
2019-03-18T12:02:28.216Z,9.10
2019-03-18T12:07:46.418Z,8.80
2019-03-18T12:13:02.224Z,8.70
2019-03-18T12:18:20.852Z,8.50
2019-03-18T12:23:37.182Z,8.60
2019-03-18T12:28:53.363Z,8.40
2019-03-18T12:34:09.507Z,8.50
2019-03-18T12:39:25.375Z,8.70
2019-03-18T12:44:40.889Z,8.90
2019-03-18T12:49:57.157Z,8.80
2019-03-18T12:55:13.343Z,8.90
2019-03-18T13:00:29.263Z,8.90
2019-03-18T13:05:45.054Z,9.10
2019-03-18T13:11:00.881Z,9.20
2019-03-18T13:16:18.193Z,9.30
2019-03-18T13:21:33.984Z,9.10
2019-03-18T13:26:50.055Z,9.20
2019-03-18T13:32:05.598Z,9.40
2019-03-18T13:37:21.159Z,9.50
2019-03-18T13:42:36.942Z,9.50
2019-03-18T13:47:52.349Z,9.50
2019-03-18T13:53:08.130Z,9.50
2019-03-18T13:58:23.494Z,9.50
2019-03-18T14:03:39.155Z,9.50
2019-03-18T14:08:55.279Z,9.50
2019-03-18T14:14:10.822Z,9.50
2019-03-18T14:19:26.378Z,9.90
2019-03-18T14:24:41.971Z,10.20
2019-03-18T14:29:57.330Z,10.30
2019-03-18T14:35:13.412Z,10.50
2019-03-18T14:40:29.010Z,10.70
2019-03-18T14:45:45.121Z,11.00
2019-03-18T14:51:00.873Z,11.20
2019-03-18T14:56:19.723Z,10.90
2019-03-18T15:01:37.464Z,11.00
2019-03-18T15:06:53.321Z,10.70
2019-03-18T15:12:09.049Z,10.70
2019-03-18T15:17:24.963Z,10.50
2019-03-18T15:22:41.881Z,10.20
2019-03-18T15:27:59.833Z,9.60
2019-03-18T15:33:16.059Z,9.60
2019-03-18T15:38:31.726Z,9.40
2019-03-18T15:43:47.247Z,9.20
2019-03-18T15:49:03.375Z,9.10
2019-03-18T15:54:19.409Z,9.10
2019-03-18T15:59:43.255Z,9.20
2019-03-18T16:04:59.087Z,9.10
2019-03-18T16:10:15.504Z,9.00
2019-03-18T16:15:31.384Z,9.00
2019-03-18T16:20:47.064Z,9.00
2019-03-18T16:26:03.020Z,9.00
2019-03-18T16:31:19.103Z,9.00
2019-03-18T16:36:39.276Z,8.80
2019-03-18T16:42:11.212Z,8.80
2019-03-18T16:47:31.434Z,8.80
2019-03-18T16:52:48.192Z,8.70
2019-03-18T16:58:08.540Z,8.50
2019-03-18T17:03:29.096Z,8.40
2019-03-18T17:08:53.332Z,8.20
2019-03-18T17:14:08.915Z,8.20
2019-03-18T17:19:30.349Z,8.30
2019-03-18T17:24:55.238Z,8.30
2019-03-18T17:30:16.400Z,8.30
2019-03-18T17:35:32.357Z,8.40
2019-03-18T17:40:48.104Z,8.50
2019-03-18T17:46:04.082Z,8.40
2019-03-18T17:51:22.510Z,8.50
2019-03-18T17:56:38.212Z,8.50
2019-03-18T18:01:54.261Z,8.40
2019-03-18T18:07:37.427Z,8.40
2019-03-18T18:12:53.398Z,8.20
2019-03-18T18:18:11.236Z,7.80
2019-03-18T18:23:27.214Z,7.40
2019-03-18T18:28:43.001Z,7.40
2019-03-18T18:34:01.264Z,7.30
2019-03-18T18:39:17.654Z,7.30
2019-03-18T18:44:33.309Z,7.10
2019-03-18T18:49:49.179Z,7.10
2019-03-18T19:00:23.530Z,6.90
2019-03-18T19:05:41.056Z,6.90
2019-03-18T19:10:58.990Z,6.90
2019-03-18T19:16:15.760Z,6.90
2019-03-18T19:21:31.984Z,7.00
2019-03-18T19:26:51.499Z,6.90
2019-03-18T19:32:22.255Z,6.90
2019-03-18T19:37:34.130Z,7.00
2019-03-18T19:42:51.678Z,7.00
2019-03-18T19:48:12.262Z,7.00
2019-03-18T19:53:31.402Z,7.00
2019-03-18T19:58:47.699Z,7.10
2019-03-18T20:04:09.511Z,7.10
2019-03-18T20:09:27.765Z,7.00
2019-03-18T20:14:50.145Z,7.00
2019-03-18T20:20:07.637Z,7.00
2019-03-18T20:25:28.027Z,6.90
2019-03-18T20:30:46.949Z,6.70
2019-03-18T20:36:11.315Z,6.70
2019-03-18T20:41:28.166Z,6.70
2019-03-18T20:46:48.354Z,6.50
2019-03-18T20:52:15.977Z,6.50
2019-03-18T20:57:49.894Z,6.40
2019-03-18T21:03:05.966Z,6.40
2019-03-18T21:08:21.989Z,6.50
2019-03-18T21:13:37.939Z,6.50
2019-03-18T21:18:54.110Z,6.50
2019-03-18T21:24:09.758Z,6.50
2019-03-18T21:29:26.705Z,6.40
2019-03-18T21:34:42.952Z,6.40
2019-03-18T21:40:00.085Z,6.40
2019-03-18T21:45:17.310Z,6.30
2019-03-18T21:50:32.762Z,6.30
2019-03-18T21:55:51.223Z,6.20
2019-03-18T22:01:07.196Z,6.20
2019-03-18T22:06:22.908Z,6.20
2019-03-18T22:11:39.935Z,6.10
2019-03-18T22:16:58.958Z,6.10
2019-03-18T22:22:14.787Z,6.00
2019-03-18T22:27:30.913Z,6.00
2019-03-18T22:32:48.338Z,6.00
2019-03-18T22:38:04.721Z,5.90
2019-03-18T22:43:20.469Z,5.80
2019-03-18T22:48:35.889Z,5.80
2019-03-18T22:53:51.474Z,5.70
2019-03-18T22:59:07.484Z,5.70
2019-03-18T23:04:23.458Z,5.60
2019-03-18T23:09:40.115Z,5.60
2019-03-18T23:14:55.866Z,5.50
2019-03-18T23:20:12.868Z,5.50
2019-03-18T23:25:28.826Z,5.40
2019-03-18T23:30:44.420Z,5.40
2019-03-18T23:36:00.277Z,5.30
2019-03-18T23:41:18.568Z,5.30
2019-03-18T23:46:36.104Z,5.30
2019-03-18T23:51:51.855Z,5.30
2019-03-18T23:57:07.647Z,5.20
